Flemington, NJ

6:50 PM EDT on August 30, 2015 (GMT -0400)
Voorhees Corner | | Change Station
CLOSE
Current Station
Personal Weather Station
Location: Flemington, NJ
Elevation: 144 ft
Nearby Weather Stations

Elev 144 ft 40.50 °N, 74.81 °W | Updated 0 second ago

Clear
Clear
86.2 °F
Feels Like 85 °F
N
1.6
Wind Variable Wind from SW
Gusts 2.2 mph

Today
High -- | Low -- °F
--% Chance of Precip.
Yesterday
High -- | Low -- °F
Precip. -- in
6:24 AM 7:34 PM
Full, 98% visible
Pressure 29.99 in
Visibility 10.0 miles
Clouds Clear
Heat Index 85 °F
Dew Point 55 °F
Humidity 34%
Rainfall 0.00 in
Snow Depth Not available.
UV 1 out of 12
Pollen 10.30 out of 12
Air Quality Not available.
Flu Activity Not available.
METAR KSMQ 302153Z AUTO VRB03KT 10SM CLR 30/18 A2999 RMK AO2 SLP155 T03000178
Pressure 29.99 in
Visibility 10.0 miles
Clouds Clear
Heat Index 85 °F
Dew Point 55 °F
Humidity 34%
Rainfall 0.00 in
Snow Depth Not available.
UV 1 out of 12
Pollen 10.30 out of 12
Air Quality Not available.
Flu Activity Not available.
METAR KSMQ 302153Z AUTO VRB03KT 10SM CLR 30/18 A2999 RMK AO2 SLP155 T03000178
Nowcast | as of 6:45 PM EDT on August 30, 2015

Isolated rain showers will continue to affect parts of eastern Pennsylvania and northern and central New Jersey early this evening.

×

10-Day Weather Forecast

×

Almanac

Astronomy

Aug. 30, 2015 Rise Set
Actual Time
Civil Twilight
Nautical Twilight
Astronomical Twilight
Moon
Length of Visible Light
Length of Day
Tomorrow will be .
, % of the Moon is Illuminated

Today's Extremes

State Highs State Lows

Community

WunderPhotos

Upload Photos

1,851,075 photos uploaded!

WunderBlogs® & News

Nearby

Air Quality

  Air Quality AQ Index Pollutant
Not available.

Snow Depth

Station Depth Elevation

Earthquake Activity

City Distance Mag. Time & Date
Minimum magnitude displayed is 2.5.

Coastal Water Temperatures

Place Temperature

Stations

Nearby Weather Stations

Station Location Temp. Windchill Dew Point Humidity Wind Precip. Elev Updated Type